Perth Airport Weather

Latest weather

Perth Scone (EGPT) Weather updates coming soon.

Below are some surrounding airfields, alternative you can view our webcam below or contact Perth radio operator who can assist.

Dundee Weather - Distance 12nm Track 086'

[Source: ADDS]
METAR
EGPN 051750Z 30002KT CAVOK 02/M02 Q1016 =
EGPN 051655Z 0518/0521 VRB02KT CAVOK
TAF
EGPN 051655Z 0518/0521 VRB02KT CAVOK =

RAF Leuchars Weather - Distance 17nm Track 103'

[Source: ADDS]
METAR
EGQL 051650Z 27003KT CAVOK M00/M03 Q1016 RMK BLU =
EGQL 051620Z 0518/0603 26005KT CAVOK PROB30 TEMPO 0600/0603 SCT024
TAF
EGQL 051620Z 0518/0603 26005KT CAVOK PROB30 TEMPO 0600/0603 SCT024 =

Edinburgh Weather - Distance 29nm Track 180'

[Source: ADDS]
METAR
EGPH 051750Z 23002KT CAVOK M01/M03 Q1016 =
EGPH 051654Z 0518/0618 26004KT 9999 FEW030 BECMG 0600/0603 20010KT TEMPO 0603/0609 20015G28KT TEMPO 0604/0611 8000 -RA BKN014 PROB40 TEMPO 0604/0611 4000 RA BKN009 PROB30 TEMPO 0611/0618 5000 SHRA BKN014
TAF
EGPH 051654Z 0518/0618 26004KT 9999 FEW030 BECMG 0600/0603 20010KT TEMPO 0603/0609 20015G28KT TEMPO 0604/0611 8000 -RA BKN014 PROB40 TEMPO 0604/0611 4000 RA BKN009 PROB30 TEMPO 0611/0618 5000 SHRA BKN014 =

Aberdeen Weather - Distance 60nm Track 040'

[Source: ADDS]
METAR
EGPD 051750Z AUTO 29008KT 9999 NCD 02/M01 Q1015 NOSIG =
EGPD 051654Z 0518/0618 28008KT 9999 FEW025 BECMG 0602/0605 18015G28KT TEMPO 0604/0612 8000 -RA BKN014 PROB40 TEMPO 0604/0611 4000 RA BKN004 BECMG 0610/0612 20010KT
TAF
EGPD 051654Z 0518/0618 28008KT 9999 FEW025 BECMG 0602/0605 18015G28KT TEMPO 0604/0612 8000 -RA BKN014 PROB40 TEMPO 0604/0611 4000 RA BKN004 BECMG 0610/0612 20010KT =

Drone Tour of Perth Airport

Watch a full aerial tour of the Perth Airport runways 15/33, 09/27, 03/21. Follow our based Piper PA28-161 Warrior taking you on a tour of Perth Scone Aerodrome. The footage is captured in stunning 4K quality by the DJI Mavic Drone.
Morris Leslie Group Logo
ACS Engineering
Scotland's Charity Air Ambulance Logo
Air Service Training Logo

Get started with your first flight lesson with ACS Flight Training

Copyright 2021. ACS Aviation - Website designed by Xtensive